createdAt,value
2017-10-21T00:00:05.898Z,5.50
2017-10-21T00:00:14.031Z,5.60
2017-10-21T00:00:22.176Z,4.50
2017-10-21T00:00:30.316Z,4.90
2017-10-21T00:00:38.451Z,5.00
2017-10-21T00:00:46.574Z,4.20
2017-10-21T00:00:56.326Z,3.80
2017-10-21T00:01:04.471Z,3.40
2017-10-21T00:01:19.353Z,4.20
2017-10-21T00:01:28.172Z,3.90
2017-10-21T00:01:36.294Z,3.60
2017-10-21T00:01:44.432Z,4.00
2017-10-21T00:01:52.562Z,4.20
2017-10-21T00:02:00.706Z,4.10
2017-10-21T00:02:08.841Z,4.10
2017-10-21T00:02:18.582Z,3.20
2017-10-21T00:02:26.714Z,3.60
2017-10-21T00:02:34.891Z,3.70
2017-10-21T00:02:42.998Z,3.30
2017-10-21T00:02:51.129Z,3.30
2017-10-21T00:02:59.262Z,3.10
2017-10-21T00:03:07.398Z,3.20
2017-10-21T00:03:15.546Z,3.30
2017-10-21T00:03:23.698Z,3.80
2017-10-21T00:03:31.826Z,3.70
2017-10-21T00:03:39.962Z,4.40
2017-10-21T00:03:48.085Z,4.40
2017-10-21T00:03:56.217Z,5.60
2017-10-21T00:04:04.362Z,5.40
2017-10-21T00:04:12.501Z,5.40
2017-10-21T00:04:20.646Z,5.90
2017-10-21T00:04:28.777Z,5.80
2017-10-21T00:04:36.914Z,5.60
2017-10-21T00:04:45.044Z,5.70
2017-10-21T00:04:53.185Z,6.00
2017-10-21T00:05:01.338Z,5.50
2017-10-21T00:05:09.653Z,5.60
2017-10-21T00:05:17.603Z,5.30
2017-10-21T00:05:25.745Z,5.20
2017-10-21T00:05:33.873Z,5.00
2017-10-21T00:05:42.011Z,5.90
2017-10-21T00:05:50.161Z,5.10
2017-10-21T00:05:58.307Z,5.20
2017-10-21T00:06:06.427Z,5.60
2017-10-21T00:06:14.565Z,5.70
2017-10-21T00:06:22.698Z,6.60
2017-10-21T00:06:30.838Z,6.60
2017-10-21T00:06:38.995Z,6.40
2017-10-21T00:06:47.121Z,5.60
2017-10-21T00:06:55.261Z,7.00
2017-10-21T00:07:03.387Z,6.70
2017-10-21T00:07:11.525Z,6.00
2017-10-21T00:07:19.668Z,5.50
2017-10-21T00:07:27.802Z,5.80
2017-10-21T00:07:35.970Z,6.60
2017-10-21T00:07:44.075Z,6.60
2017-10-21T00:07:52.209Z,6.30
2017-10-21T00:08:00.354Z,6.20
2017-10-21T00:08:08.490Z,7.80
2017-10-21T00:08:16.631Z,7.90
2017-10-21T00:08:24.766Z,8.40
2017-10-21T00:08:32.909Z,7.30
2017-10-21T00:08:41.041Z,7.10
2017-10-21T00:08:49.175Z,6.20
2017-10-21T00:08:57.314Z,6.60
2017-10-21T00:09:05.461Z,5.20
2017-10-21T00:09:13.629Z,5.00
2017-10-21T00:09:21.733Z,4.60
2017-10-21T00:09:29.873Z,5.10
2017-10-21T00:09:38.001Z,5.00
2017-10-21T00:09:46.140Z,4.40
2017-10-21T00:09:54.286Z,4.30
2017-10-21T00:10:02.422Z,4.40
2017-10-21T00:10:10.562Z,5.10
2017-10-21T00:10:18.713Z,4.30
2017-10-21T00:10:26.825Z,4.80
2017-10-21T00:10:34.961Z,5.00
2017-10-21T00:10:43.104Z,4.90
2017-10-21T00:10:51.246Z,4.90
2017-10-21T00:10:59.387Z,5.10
2017-10-21T00:11:07.518Z,5.10
2017-10-21T00:11:15.650Z,5.00
2017-10-21T00:11:23.785Z,4.30
2017-10-21T00:11:31.928Z,4.10
2017-10-21T00:11:40.071Z,4.60
2017-10-21T00:11:48.202Z,5.70
2017-10-21T00:11:56.352Z,5.60
2017-10-21T00:12:04.469Z,6.20
2017-10-21T00:12:12.614Z,6.50
2017-10-21T00:12:20.749Z,7.30
2017-10-21T00:12:29.037Z,7.10
2017-10-21T00:12:37.050Z,7.60
2017-10-21T00:12:45.166Z,6.70
2017-10-21T00:12:53.297Z,6.90
2017-10-21T00:13:01.430Z,6.80
2017-10-21T00:13:09.583Z,5.90
2017-10-21T00:13:17.716Z,6.30
2017-10-21T00:13:25.849Z,6.10
2017-10-21T00:13:34.034Z,5.40
2017-10-21T00:13:42.125Z,5.20
2017-10-21T00:13:50.257Z,5.10
2017-10-21T00:13:58.406Z,4.70
2017-10-21T00:14:06.541Z,5.50
2017-10-21T00:14:14.675Z,5.40
2017-10-21T00:14:22.809Z,6.70
2017-10-21T00:14:30.954Z,7.10
2017-10-21T00:14:39.090Z,7.80
2017-10-21T00:14:47.234Z,8.60
2017-10-21T00:14:55.361Z,9.20
2017-10-21T00:15:03.506Z,8.30
2017-10-21T00:15:11.638Z,7.60
2017-10-21T00:15:19.774Z,7.30
2017-10-21T00:15:27.922Z,6.00
2017-10-21T00:15:36.251Z,6.10
2017-10-21T00:15:44.194Z,4.40
2017-10-21T00:15:52.324Z,4.60
2017-10-21T00:16:00.465Z,4.20
2017-10-21T00:16:08.594Z,4.90
2017-10-21T00:16:16.735Z,4.90
2017-10-21T00:16:24.874Z,5.00
2017-10-21T00:16:33.030Z,5.60
2017-10-21T00:16:41.144Z,5.80
2017-10-21T00:16:55.045Z,6.40
2017-10-21T00:17:03.267Z,6.10
2017-10-21T00:17:11.390Z,6.00
2017-10-21T00:17:19.527Z,5.60
2017-10-21T00:17:27.675Z,5.30
2017-10-21T00:17:35.811Z,5.10
2017-10-21T00:17:43.974Z,4.90
2017-10-21T00:17:52.081Z,4.50
2017-10-21T00:18:00.223Z,4.80
2017-10-21T00:18:08.563Z,5.20
2017-10-21T00:18:16.483Z,5.50
2017-10-21T00:18:24.642Z,5.70
2017-10-21T00:18:32.757Z,5.70
2017-10-21T00:18:40.909Z,5.20
2017-10-21T00:18:49.042Z,4.80
2017-10-21T00:18:57.174Z,4.70
2017-10-21T00:19:05.316Z,4.20
2017-10-21T00:19:13.464Z,3.80
2017-10-21T00:19:21.596Z,4.40
2017-10-21T00:19:29.925Z,4.40
2017-10-21T00:19:37.876Z,4.40
2017-10-21T00:19:52.415Z,4.60
2017-10-21T00:20:02.139Z,4.30
2017-10-21T00:20:10.286Z,4.90
2017-10-21T00:20:18.414Z,3.90
2017-10-21T00:20:26.552Z,4.30
2017-10-21T00:20:34.690Z,4.40
2017-10-21T00:20:44.421Z,3.90
2017-10-21T00:20:54.187Z,3.90
2017-10-21T00:21:02.303Z,4.20
2017-10-21T00:21:10.426Z,4.10
2017-10-21T00:21:18.578Z,4.10
2017-10-21T00:21:26.711Z,3.90
2017-10-21T00:21:34.856Z,4.50
2017-10-21T00:21:43.010Z,5.00
2017-10-21T00:21:51.121Z,6.30
2017-10-21T00:21:59.257Z,7.00
2017-10-21T00:22:07.390Z,7.10
2017-10-21T00:22:15.528Z,6.80
2017-10-21T00:22:23.674Z,7.40
2017-10-21T00:22:31.818Z,7.10
2017-10-21T00:22:39.954Z,7.10
2017-10-21T00:22:48.110Z,6.30
2017-10-21T00:22:56.217Z,5.30
2017-10-21T00:23:04.362Z,5.00
2017-10-21T00:23:12.502Z,7.60
2017-10-21T00:23:20.640Z,7.80
2017-10-21T00:23:28.774Z,7.10
2017-10-21T00:23:36.917Z,7.10
2017-10-21T00:23:45.058Z,6.90
2017-10-21T00:23:53.182Z,6.50
2017-10-21T00:24:01.356Z,7.40
2017-10-21T00:24:09.462Z,5.80
2017-10-21T00:24:17.602Z,4.70
2017-10-21T00:24:25.749Z,5.10
2017-10-21T00:24:33.875Z,5.90
2017-10-21T00:24:42.006Z,6.20
2017-10-21T00:24:50.158Z,7.70
2017-10-21T00:24:58.291Z,6.90
2017-10-21T00:25:06.418Z,7.30
2017-10-21T00:25:14.562Z,7.80
2017-10-21T00:25:22.697Z,7.00
2017-10-21T00:25:30.842Z,5.80
2017-10-21T00:25:38.965Z,5.80
2017-10-21T00:25:47.121Z,5.00
2017-10-21T00:26:01.654Z,4.40
2017-10-21T00:26:09.783Z,4.40
2017-10-21T00:26:17.942Z,6.00
2017-10-21T00:26:26.250Z,6.60
2017-10-21T00:26:34.198Z,6.90
2017-10-21T00:26:42.334Z,6.90
2017-10-21T00:26:50.473Z,6.60
2017-10-21T00:26:58.612Z,6.60
2017-10-21T00:27:06.759Z,7.20
2017-10-21T00:27:14.890Z,6.20
2017-10-21T00:27:23.018Z,5.80
2017-10-21T00:27:31.161Z,6.50
2017-10-21T00:27:39.298Z,6.70
2017-10-21T00:27:47.437Z,6.80
2017-10-21T00:27:55.602Z,6.60
2017-10-21T00:28:03.719Z,5.70
2017-10-21T00:28:11.846Z,5.80
2017-10-21T00:28:20.178Z,5.80
2017-10-21T00:28:28.114Z,5.00
2017-10-21T00:28:36.253Z,4.60
2017-10-21T00:28:44.423Z,4.80
2017-10-21T00:28:52.542Z,4.90
2017-10-21T00:29:00.669Z,5.10
2017-10-21T00:29:08.803Z,4.90
2017-10-21T00:29:16.945Z,4.40
2017-10-21T00:29:25.077Z,4.20
2017-10-21T00:29:33.234Z,4.20
2017-10-21T00:29:41.366Z,4.00
2017-10-21T00:29:49.682Z,4.50
2017-10-21T00:29:57.637Z,4.40
2017-10-21T00:30:05.774Z,4.40
2017-10-21T00:30:13.910Z,4.40
2017-10-21T00:30:25.805Z,4.60
2017-10-21T00:30:34.400Z,4.30
2017-10-21T00:30:42.554Z,3.90
2017-10-21T00:30:50.684Z,3.90
2017-10-21T00:30:58.827Z,3.90
2017-10-21T00:31:06.966Z,4.50
2017-10-21T00:31:15.099Z,4.90
2017-10-21T00:31:23.230Z,5.00
2017-10-21T00:31:31.366Z,5.20
2017-10-21T00:31:39.501Z,5.50
2017-10-21T00:31:47.645Z,6.00
2017-10-21T00:31:55.795Z,5.80
2017-10-21T00:32:03.913Z,5.40
2017-10-21T00:32:12.061Z,5.50
2017-10-21T00:32:20.193Z,5.70
2017-10-21T00:32:28.339Z,5.80
2017-10-21T00:32:36.475Z,5.90
2017-10-21T00:32:44.614Z,5.70
2017-10-21T00:32:52.750Z,4.70
2017-10-21T00:33:00.910Z,5.70
2017-10-21T00:33:09.017Z,7.20
2017-10-21T00:33:17.154Z,6.90
2017-10-21T00:33:25.297Z,6.30
2017-10-21T00:33:33.447Z,6.30
2017-10-21T00:33:41.573Z,6.10
2017-10-21T00:33:49.702Z,5.90
2017-10-21T00:33:57.846Z,5.80
2017-10-21T00:34:05.986Z,3.90
2017-10-21T00:34:14.127Z,4.30
2017-10-21T00:34:22.266Z,4.40
2017-10-21T00:34:30.398Z,4.50
2017-10-21T00:34:38.529Z,4.80
2017-10-21T00:34:46.666Z,4.90
2017-10-21T00:34:54.818Z,5.60
2017-10-21T00:35:02.957Z,5.00
2017-10-21T00:35:11.092Z,5.40
2017-10-21T00:35:19.239Z,5.80
2017-10-21T00:35:27.350Z,6.00
2017-10-21T00:35:35.489Z,5.80
2017-10-21T00:35:43.631Z,6.30
2017-10-21T00:35:51.773Z,5.50
2017-10-21T00:35:59.910Z,6.30
2017-10-21T00:36:08.049Z,5.80
2017-10-21T00:36:16.182Z,5.60
2017-10-21T00:36:24.309Z,4.50
2017-10-21T00:36:32.449Z,4.60
2017-10-21T00:36:40.594Z,4.90
2017-10-21T00:36:48.729Z,4.30
2017-10-21T00:36:56.875Z,3.90
2017-10-21T00:37:05.005Z,3.90
2017-10-21T00:37:13.145Z,3.90
2017-10-21T00:37:22.882Z,4.40
2017-10-21T00:37:31.019Z,4.10
2017-10-21T00:37:39.155Z,4.40
2017-10-21T00:37:47.304Z,5.80
2017-10-21T00:37:55.436Z,6.10
2017-10-21T00:38:03.598Z,6.30
2017-10-21T00:38:11.706Z,6.50
2017-10-21T00:38:19.834Z,6.50
2017-10-21T00:38:27.978Z,6.80
2017-10-21T00:38:36.128Z,7.10
2017-10-21T00:38:44.259Z,6.30
2017-10-21T00:38:52.398Z,7.10
2017-10-21T00:39:00.530Z,7.10
2017-10-21T00:39:08.777Z,7.00
2017-10-21T00:39:16.797Z,7.20
2017-10-21T00:39:24.938Z,6.60
2017-10-21T00:39:33.089Z,7.10
2017-10-21T00:39:41.226Z,6.70
2017-10-21T00:39:49.358Z,6.60
2017-10-21T00:39:57.485Z,6.30
2017-10-21T00:40:05.622Z,5.90
2017-10-21T00:40:13.763Z,5.40
2017-10-21T00:40:21.925Z,5.80
2017-10-21T00:40:30.047Z,5.50
2017-10-21T00:40:38.186Z,4.80
2017-10-21T00:40:46.320Z,5.10
2017-10-21T00:40:54.449Z,4.60
2017-10-21T00:41:02.594Z,5.10
2017-10-21T00:41:10.789Z,5.40
2017-10-21T00:41:18.894Z,5.50
2017-10-21T00:41:27.001Z,5.80
2017-10-21T00:41:35.138Z,6.00
2017-10-21T00:41:43.278Z,5.50
2017-10-21T00:41:51.414Z,5.50
2017-10-21T00:41:59.554Z,5.20
2017-10-21T00:42:07.698Z,5.10
2017-10-21T00:42:15.825Z,5.70
2017-10-21T00:42:23.970Z,6.30
2017-10-21T00:42:32.100Z,5.90
2017-10-21T00:42:40.233Z,5.60
2017-10-21T00:42:48.383Z,4.90
2017-10-21T00:42:56.529Z,5.00
2017-10-21T00:43:04.666Z,6.10
2017-10-21T00:43:12.782Z,4.80
2017-10-21T00:43:20.924Z,4.10
2017-10-21T00:43:29.070Z,4.00
2017-10-21T00:43:37.206Z,4.60
2017-10-21T00:43:45.347Z,5.60
2017-10-21T00:43:53.487Z,5.70
2017-10-21T00:44:01.611Z,4.90
2017-10-21T00:44:09.750Z,4.70
2017-10-21T00:44:17.890Z,4.90
2017-10-21T00:44:26.021Z,4.70
2017-10-21T00:44:34.162Z,5.20
2017-10-21T00:44:42.310Z,4.20
2017-10-21T00:44:50.440Z,4.30
2017-10-21T00:44:58.574Z,4.30
2017-10-21T00:45:06.710Z,4.30
2017-10-21T00:45:14.850Z,4.30
2017-10-21T00:45:22.985Z,5.10
2017-10-21T00:45:31.139Z,4.90
2017-10-21T00:45:39.253Z,5.30
2017-10-21T00:45:47.394Z,5.90
2017-10-21T00:45:55.537Z,6.20
2017-10-21T00:46:03.674Z,6.10
2017-10-21T00:46:11.998Z,6.00
2017-10-21T00:46:19.954Z,5.10
2017-10-21T00:46:28.090Z,5.20
2017-10-21T00:46:36.225Z,5.10
2017-10-21T00:46:44.365Z,4.70
2017-10-21T00:46:52.500Z,6.30
2017-10-21T00:47:00.678Z,6.10
2017-10-21T00:47:08.775Z,6.10
2017-10-21T00:47:16.918Z,6.10
2017-10-21T00:47:25.043Z,6.20
2017-10-21T00:47:33.187Z,5.20
2017-10-21T00:47:41.322Z,5.00
2017-10-21T00:47:49.471Z,4.20
2017-10-21T00:47:57.602Z,4.20
2017-10-21T00:48:05.746Z,4.80
2017-10-21T00:48:13.877Z,5.80
2017-10-21T00:48:22.020Z,5.80
2017-10-21T00:48:30.154Z,5.90
2017-10-21T00:48:38.478Z,5.90
2017-10-21T00:48:46.440Z,6.10
2017-10-21T00:48:54.553Z,5.40
2017-10-21T00:49:02.681Z,5.00
2017-10-21T00:49:10.830Z,5.30
2017-10-21T00:49:18.971Z,4.50
2017-10-21T00:49:27.136Z,4.60
2017-10-21T00:49:35.250Z,4.90
2017-10-21T00:49:43.381Z,5.10
2017-10-21T00:49:51.521Z,5.50
2017-10-21T00:49:59.666Z,5.30
2017-10-21T00:50:07.786Z,4.50
2017-10-21T00:50:23.681Z,5.10
2017-10-21T00:50:31.494Z,4.80
2017-10-21T00:50:39.628Z,5.00
2017-10-21T00:50:47.786Z,4.90
2017-10-21T00:50:55.910Z,5.30
2017-10-21T00:51:04.048Z,5.90
2017-10-21T00:51:12.174Z,5.90
2017-10-21T00:51:20.318Z,5.40
2017-10-21T00:51:28.455Z,5.30
2017-10-21T00:51:36.606Z,5.10
2017-10-21T00:51:44.743Z,4.90
2017-10-21T00:51:52.869Z,5.10
2017-10-21T00:52:01.009Z,4.80
2017-10-21T00:52:09.147Z,4.40
2017-10-21T00:52:17.289Z,4.20
2017-10-21T00:52:25.433Z,4.00
2017-10-21T00:52:33.554Z,4.20
2017-10-21T00:52:41.685Z,5.10
2017-10-21T00:52:49.844Z,4.80
2017-10-21T00:52:57.981Z,4.90
2017-10-21T00:53:06.110Z,5.60
2017-10-21T00:53:14.278Z,5.90
2017-10-21T00:53:22.389Z,6.20
2017-10-21T00:53:30.523Z,5.90
2017-10-21T00:53:38.650Z,5.80
2017-10-21T00:53:46.807Z,4.60
2017-10-21T00:53:54.941Z,4.10
2017-10-21T00:54:03.078Z,4.80
2017-10-21T00:54:11.215Z,4.30
2017-10-21T00:54:19.347Z,4.30
2017-10-21T00:54:27.477Z,4.50
2017-10-21T00:54:35.626Z,4.40
2017-10-21T00:54:56.913Z,5.90
2017-10-21T00:55:05.735Z,6.10
2017-10-21T00:55:13.869Z,6.20
2017-10-21T00:55:22.002Z,7.10
2017-10-21T00:55:30.130Z,6.90
2017-10-21T00:55:38.278Z,7.30
2017-10-21T00:55:46.402Z,6.80
2017-10-21T00:55:54.613Z,6.10
2017-10-21T00:56:02.682Z,6.40
2017-10-21T00:56:10.824Z,6.20
2017-10-21T00:56:18.955Z,5.70
2017-10-21T00:56:27.093Z,6.50
2017-10-21T00:56:35.238Z,6.20
2017-10-21T00:56:43.374Z,6.20
2017-10-21T00:56:51.525Z,6.40
2017-10-21T00:56:59.660Z,5.50
2017-10-21T00:57:07.782Z,4.90
2017-10-21T00:57:15.914Z,5.40
2017-10-21T00:57:24.066Z,6.70
2017-10-21T00:57:32.386Z,6.10
2017-10-21T00:57:40.345Z,5.80
2017-10-21T00:57:48.484Z,5.70
2017-10-21T00:57:58.212Z,6.00
2017-10-21T00:58:06.374Z,6.20
2017-10-21T00:58:14.515Z,6.20
2017-10-21T00:58:22.632Z,4.60
2017-10-21T00:58:30.758Z,5.70
2017-10-21T00:58:38.890Z,6.60
2017-10-21T00:58:47.026Z,6.70
2017-10-21T00:58:55.191Z,6.20
2017-10-21T00:59:03.322Z,5.80
2017-10-21T00:59:11.467Z,5.60
2017-10-21T00:59:19.581Z,5.40
2017-10-21T00:59:27.715Z,4.80
2017-10-21T00:59:35.854Z,4.40
2017-10-21T00:59:43.998Z,3.70
2017-10-21T00:59:52.138Z,4.00
2017-10-21T01:00:00.265Z,5.60
2017-10-21T01:00:08.423Z,5.40
2017-10-21T01:00:16.538Z,5.80
2017-10-21T01:00:24.670Z,6.10
2017-10-21T01:00:32.822Z,5.80
2017-10-21T01:00:40.954Z,5.70
2017-10-21T01:00:49.095Z,5.70
2017-10-21T01:00:57.227Z,4.70
2017-10-21T01:01:05.371Z,4.60
2017-10-21T01:01:13.494Z,4.10
2017-10-21T01:01:21.672Z,4.10
2017-10-21T01:01:29.778Z,3.90
2017-10-21T01:01:37.929Z,3.90
2017-10-21T01:01:46.050Z,3.70
2017-10-21T01:01:54.190Z,3.60
2017-10-21T01:02:02.327Z,4.30
2017-10-21T01:02:12.275Z,5.90
2017-10-21T01:02:20.198Z,5.20
2017-10-21T01:02:28.342Z,5.20
2017-10-21T01:02:36.489Z,5.50
2017-10-21T01:02:44.618Z,5.80
2017-10-21T01:02:52.747Z,5.50
2017-10-21T01:03:06.653Z,3.70
2017-10-21T01:03:14.878Z,3.90
2017-10-21T01:03:23.011Z,5.20
2017-10-21T01:03:31.142Z,6.20
2017-10-21T01:03:40.866Z,7.00
2017-10-21T01:03:49.009Z,6.90
2017-10-21T01:04:01.945Z,7.00
2017-10-21T01:04:11.686Z,7.00
2017-10-21T01:04:19.833Z,6.70
2017-10-21T01:04:27.963Z,5.80
2017-10-21T01:04:36.183Z,5.40
2017-10-21T01:04:44.225Z,4.70
2017-10-21T01:04:52.370Z,4.60
2017-10-21T01:05:00.501Z,4.80
2017-10-21T01:05:10.239Z,4.60
2017-10-21T01:05:18.381Z,4.50
2017-10-21T01:05:26.513Z,5.10
2017-10-21T01:05:41.566Z,4.00
2017-10-21T01:05:50.261Z,4.80
2017-10-21T01:05:58.366Z,5.10
2017-10-21T01:06:06.497Z,6.40
2017-10-21T01:06:14.652Z,7.50
2017-10-21T01:06:22.778Z,6.80
2017-10-21T01:06:30.931Z,7.00
2017-10-21T01:06:39.046Z,7.20
2017-10-21T01:06:47.194Z,6.80
2017-10-21T01:06:55.323Z,7.30
2017-10-21T01:07:03.465Z,6.20
2017-10-21T01:07:11.604Z,6.20
2017-10-21T01:07:19.744Z,6.40
2017-10-21T01:07:27.873Z,6.90
2017-10-21T01:07:36.006Z,7.70
2017-10-21T01:07:44.145Z,7.90
2017-10-21T01:07:52.306Z,7.40
2017-10-21T01:08:00.425Z,7.20
2017-10-21T01:08:08.558Z,6.70
2017-10-21T01:08:16.715Z,5.90
2017-10-21T01:08:26.430Z,5.80
2017-10-21T01:08:34.575Z,4.80
2017-10-21T01:08:42.716Z,4.30
2017-10-21T01:08:50.841Z,4.70
2017-10-21T01:08:58.999Z,5.10
2017-10-21T01:09:07.126Z,6.20
2017-10-21T01:09:15.265Z,6.80
2017-10-21T01:09:23.397Z,6.70
2017-10-21T01:09:31.534Z,7.00
2017-10-21T01:09:39.675Z,7.60
2017-10-21T01:09:49.422Z,7.50
2017-10-21T01:09:57.541Z,7.00
2017-10-21T01:10:05.885Z,6.70
2017-10-21T01:10:20.224Z,5.40
2017-10-21T01:10:29.953Z,5.10
2017-10-21T01:10:38.094Z,4.40
2017-10-21T01:10:46.238Z,3.90
2017-10-21T01:10:54.378Z,4.70
2017-10-21T01:11:02.524Z,4.90
2017-10-21T01:11:10.684Z,4.70
2017-10-21T01:11:18.773Z,4.40
2017-10-21T01:11:26.924Z,4.80
2017-10-21T01:11:35.055Z,5.20
2017-10-21T01:11:43.199Z,6.10
2017-10-21T01:11:51.347Z,6.30
2017-10-21T01:11:59.475Z,6.00
2017-10-21T01:12:07.606Z,5.70
2017-10-21T01:12:15.738Z,5.90
2017-10-21T01:12:23.893Z,6.10
2017-10-21T01:12:32.027Z,5.90
2017-10-21T01:12:40.169Z,5.40
2017-10-21T01:12:48.301Z,4.70
2017-10-21T01:12:56.436Z,4.10
2017-10-21T01:13:04.576Z,4.20
2017-10-21T01:13:12.718Z,4.10
2017-10-21T01:13:20.858Z,4.30
2017-10-21T01:13:28.996Z,4.70
2017-10-21T01:13:37.137Z,6.00
2017-10-21T01:13:45.265Z,6.20
2017-10-21T01:13:53.395Z,6.50
2017-10-21T01:14:01.541Z,7.40
2017-10-21T01:14:09.670Z,8.80
2017-10-21T01:14:17.815Z,10.30
2017-10-21T01:14:25.962Z,9.90
2017-10-21T01:14:34.087Z,9.20
2017-10-21T01:14:42.230Z,9.50
2017-10-21T01:14:50.374Z,9.60
2017-10-21T01:14:58.497Z,10.10
2017-10-21T01:15:06.650Z,8.70
2017-10-21T01:15:14.787Z,5.90
2017-10-21T01:15:22.915Z,5.40
2017-10-21T01:15:31.054Z,5.80
2017-10-21T01:15:39.190Z,5.40
2017-10-21T01:15:47.326Z,5.10
2017-10-21T01:15:55.469Z,5.10
2017-10-21T01:16:03.601Z,4.30
2017-10-21T01:16:11.734Z,4.50
2017-10-21T01:16:19.866Z,5.10
2017-10-21T01:16:28.013Z,4.40
2017-10-21T01:16:36.140Z,4.20
2017-10-21T01:16:44.317Z,4.50
2017-10-21T01:16:52.430Z,4.30
2017-10-21T01:17:00.557Z,5.20
2017-10-21T01:17:08.695Z,6.00
2017-10-21T01:17:16.846Z,5.40
2017-10-21T01:17:26.575Z,5.40
2017-10-21T01:17:34.709Z,6.70
2017-10-21T01:17:42.851Z,6.80
2017-10-21T01:17:50.990Z,6.90
2017-10-21T01:17:59.140Z,5.90
2017-10-21T01:18:07.249Z,5.90
2017-10-21T01:18:15.398Z,6.60
2017-10-21T01:18:25.168Z,7.00
2017-10-21T01:18:33.261Z,6.00
2017-10-21T01:18:41.401Z,5.70
2017-10-21T01:18:49.538Z,5.80
2017-10-21T01:18:57.686Z,5.60
2017-10-21T01:19:05.866Z,6.30
2017-10-21T01:19:13.965Z,6.80
2017-10-21T01:19:22.093Z,5.90
2017-10-21T01:19:30.234Z,5.20
2017-10-21T01:19:38.378Z,5.20
2017-10-21T01:19:46.523Z,5.30
2017-10-21T01:19:59.459Z,5.60
2017-10-21T01:20:07.592Z,5.60
2017-10-21T01:20:15.714Z,5.00
2017-10-21T01:20:23.853Z,4.90
2017-10-21T01:20:31.993Z,5.00
2017-10-21T01:20:44.929Z,5.30
2017-10-21T01:20:53.062Z,5.30
2017-10-21T01:21:01.199Z,5.30
2017-10-21T01:21:09.358Z,6.10
2017-10-21T01:21:17.493Z,6.50
2017-10-21T01:21:25.609Z,7.90
2017-10-21T01:21:33.761Z,7.80
2017-10-21T01:21:41.903Z,7.70
2017-10-21T01:21:51.634Z,8.10
2017-10-21T01:21:59.770Z,8.30
2017-10-21T01:22:07.894Z,6.80
2017-10-21T01:22:16.058Z,7.30
2017-10-21T01:22:24.199Z,5.90
2017-10-21T01:22:33.924Z,5.10
2017-10-21T01:22:42.086Z,5.20
2017-10-21T01:22:50.201Z,5.20
2017-10-21T01:22:58.334Z,4.50
2017-10-21T01:23:06.466Z,4.30
2017-10-21T01:23:14.602Z,5.00
2017-10-21T01:23:22.778Z,5.10
2017-10-21T01:23:30.908Z,5.40
2017-10-21T01:23:39.014Z,5.60
2017-10-21T01:23:47.158Z,6.10
2017-10-21T01:23:55.294Z,5.90
2017-10-21T01:24:03.425Z,5.70
2017-10-21T01:24:11.578Z,6.00
2017-10-21T01:24:19.706Z,5.50
2017-10-21T01:24:27.842Z,5.50
2017-10-21T01:24:37.598Z,6.60
2017-10-21T01:24:50.490Z,0.00
2017-10-21T01:24:58.077Z,6.10
2017-10-21T01:25:06.227Z,5.80
2017-10-21T01:25:15.966Z,5.20
2017-10-21T01:25:24.114Z,5.00
2017-10-21T01:25:32.242Z,4.70
2017-10-21T01:25:41.974Z,4.50
2017-10-21T01:25:50.105Z,5.00
2017-10-21T01:25:58.258Z,5.10
2017-10-21T01:26:06.381Z,4.80
2017-10-21T01:26:14.526Z,4.80
2017-10-21T01:26:22.653Z,4.70
2017-10-21T01:26:30.803Z,4.50
2017-10-21T01:26:38.941Z,4.20
2017-10-21T01:26:48.670Z,3.50
2017-10-21T01:26:56.806Z,3.10
2017-10-21T01:27:04.949Z,3.70
2017-10-21T01:27:13.112Z,4.30
2017-10-21T01:27:21.222Z,4.30
2017-10-21T01:27:29.348Z,5.10
2017-10-21T01:27:37.494Z,4.90
2017-10-21T01:27:45.631Z,5.20
2017-10-21T01:27:53.779Z,5.60
2017-10-21T01:28:01.912Z,4.90
2017-10-21T01:28:10.051Z,4.50
2017-10-21T01:28:18.177Z,5.40
2017-10-21T01:28:26.325Z,5.70
2017-10-21T01:28:34.475Z,6.10
2017-10-21T01:28:44.190Z,6.00
2017-10-21T01:28:52.346Z,6.10
2017-10-21T01:29:05.271Z,7.40
2017-10-21T01:29:13.419Z,7.20
2017-10-21T01:29:21.555Z,6.40
2017-10-21T01:29:29.694Z,6.20
2017-10-21T01:29:37.830Z,5.90
2017-10-21T01:29:45.973Z,6.10
2017-10-21T01:29:54.098Z,5.60
2017-10-21T01:30:03.842Z,4.50
2017-10-21T01:30:11.962Z,4.80
2017-10-21T01:30:20.117Z,5.70
2017-10-21T01:30:29.849Z,6.30
2017-10-21T01:30:37.977Z,6.30
2017-10-21T01:30:46.138Z,6.00
2017-10-21T01:30:54.266Z,6.50
2017-10-21T01:31:02.398Z,6.70
2017-10-21T01:31:10.529Z,6.80
2017-10-21T01:31:20.285Z,5.60
2017-10-21T01:31:28.418Z,4.60
2017-10-21T01:31:36.545Z,5.10
2017-10-21T01:31:44.689Z,5.60
2017-10-21T01:31:52.809Z,5.60
2017-10-21T01:32:00.973Z,5.90
2017-10-21T01:32:09.106Z,6.30
2017-10-21T01:32:17.246Z,6.90
2017-10-21T01:32:25.370Z,7.10
2017-10-21T01:32:33.509Z,6.40
2017-10-21T01:32:41.637Z,5.80
2017-10-21T01:32:49.802Z,5.40
2017-10-21T01:32:58.118Z,5.30
2017-10-21T01:33:06.062Z,5.00
2017-10-21T01:33:14.197Z,4.70
2017-10-21T01:33:22.334Z,4.60
2017-10-21T01:33:30.477Z,4.40
2017-10-21T01:33:38.654Z,4.20
2017-10-21T01:33:46.750Z,4.50
2017-10-21T01:33:54.894Z,4.30
2017-10-21T01:34:03.030Z,4.10
2017-10-21T01:34:11.149Z,4.00
2017-10-21T01:34:19.302Z,3.60
2017-10-21T01:34:27.449Z,3.50
2017-10-21T01:34:35.589Z,3.90
2017-10-21T01:34:43.710Z,3.80
2017-10-21T01:34:51.845Z,4.30
2017-10-21T01:34:59.995Z,4.40
2017-10-21T01:35:08.119Z,4.10
2017-10-21T01:35:16.257Z,4.50
2017-10-21T01:35:25.999Z,4.60
2017-10-21T01:35:35.733Z,4.50
2017-10-21T01:35:45.462Z,4.70
2017-10-21T01:35:53.622Z,4.70
2017-10-21T01:36:01.746Z,5.00
2017-10-21T01:36:09.879Z,5.80
2017-10-21T01:36:18.013Z,5.60
2017-10-21T01:36:27.767Z,6.40
2017-10-21T01:36:35.890Z,6.40
2017-10-21T01:36:44.033Z,6.40
2017-10-21T01:36:52.174Z,7.60
2017-10-21T01:37:00.301Z,7.60
2017-10-21T01:37:08.442Z,7.00
2017-10-21T01:37:16.590Z,6.70
2017-10-21T01:37:24.713Z,7.10
2017-10-21T01:37:32.862Z,6.20
2017-10-21T01:37:41.010Z,6.10
2017-10-21T01:37:49.126Z,4.80
2017-10-21T01:37:57.269Z,4.80
2017-10-21T01:38:05.424Z,4.80
2017-10-21T01:38:15.154Z,5.20
2017-10-21T01:38:23.279Z,5.00
2017-10-21T01:38:31.420Z,5.20
2017-10-21T01:38:39.599Z,5.50
2017-10-21T01:38:49.289Z,5.50
2017-10-21T01:38:57.433Z,6.10
2017-10-21T01:39:05.581Z,7.60
2017-10-21T01:39:13.709Z,7.80
2017-10-21T01:39:21.834Z,7.30
2017-10-21T01:39:29.990Z,8.00
2017-10-21T01:39:38.115Z,7.90
2017-10-21T01:39:46.262Z,7.90
2017-10-21T01:39:54.394Z,6.60
2017-10-21T01:40:02.533Z,5.30
2017-10-21T01:40:10.662Z,4.80
2017-10-21T01:40:18.814Z,4.90
2017-10-21T01:40:28.546Z,4.30
2017-10-21T01:40:36.681Z,4.50
2017-10-21T01:40:44.813Z,4.50
2017-10-21T01:40:52.965Z,4.40
2017-10-21T01:41:01.101Z,4.30
2017-10-21T01:41:09.242Z,3.90
2017-10-21T01:41:17.367Z,3.90
2017-10-21T01:41:25.505Z,3.90
2017-10-21T01:41:35.254Z,3.60
2017-10-21T01:41:43.382Z,3.70
2017-10-21T01:41:51.521Z,4.40
2017-10-21T01:41:59.654Z,4.10
2017-10-21T01:42:09.398Z,4.30
2017-10-21T01:42:17.526Z,4.10
2017-10-21T01:42:25.681Z,5.00
2017-10-21T01:42:33.817Z,5.20
2017-10-21T01:42:41.939Z,5.20
2017-10-21T01:42:50.082Z,4.80
2017-10-21T01:42:58.218Z,5.90
2017-10-21T01:43:06.358Z,6.50
2017-10-21T01:43:14.508Z,6.90
2017-10-21T01:43:22.646Z,6.70
2017-10-21T01:43:30.768Z,5.70
2017-10-21T01:43:38.902Z,5.80
2017-10-21T01:43:48.665Z,6.30
2017-10-21T01:43:58.387Z,5.50
2017-10-21T01:44:06.522Z,5.90
2017-10-21T01:44:14.662Z,5.90
2017-10-21T01:44:22.792Z,6.00
2017-10-21T01:44:30.926Z,6.30
2017-10-21T01:44:39.069Z,6.80
2017-10-21T01:44:47.201Z,8.20
2017-10-21T01:44:55.350Z,8.20
2017-10-21T01:45:03.474Z,7.60
2017-10-21T01:45:11.617Z,7.30
2017-10-21T01:45:19.759Z,7.90
2017-10-21T01:45:27.897Z,7.30
2017-10-21T01:45:36.030Z,7.10
2017-10-21T01:45:45.766Z,5.80
2017-10-21T01:45:58.766Z,6.30
2017-10-21T01:46:06.851Z,6.60
2017-10-21T01:46:14.999Z,6.40
2017-10-21T01:46:23.125Z,6.30
2017-10-21T01:46:31.254Z,6.40
2017-10-21T01:46:39.399Z,6.10
2017-10-21T01:46:47.530Z,8.60
2017-10-21T01:46:55.673Z,9.40
2017-10-21T01:47:05.397Z,8.60
2017-10-21T01:47:13.545Z,9.10
2017-10-21T01:47:21.678Z,8.90
2017-10-21T01:47:29.825Z,10.10
2017-10-21T01:47:37.962Z,10.00
2017-10-21T01:47:46.100Z,7.90
2017-10-21T01:47:54.238Z,6.00
2017-10-21T01:48:02.370Z,6.00
2017-10-21T01:48:10.519Z,6.20
2017-10-21T01:48:18.654Z,6.90
2017-10-21T01:48:26.778Z,6.70
2017-10-21T01:48:34.930Z,5.50
2017-10-21T01:48:43.058Z,5.60
2017-10-21T01:48:51.226Z,5.80
2017-10-21T01:48:59.335Z,7.00
2017-10-21T01:49:07.473Z,6.70
2017-10-21T01:49:15.618Z,6.30
2017-10-21T01:49:25.358Z,6.20
2017-10-21T01:49:33.495Z,6.60
2017-10-21T01:49:41.629Z,7.50
2017-10-21T01:49:49.755Z,6.40
2017-10-21T01:50:06.371Z,5.50
2017-10-21T01:50:14.493Z,5.50
2017-10-21T01:50:22.621Z,6.60
2017-10-21T01:50:30.786Z,6.60
2017-10-21T01:50:40.502Z,5.60
2017-10-21T01:50:48.643Z,5.70
2017-10-21T01:50:56.990Z,6.80
2017-10-21T01:51:04.926Z,6.90
2017-10-21T01:51:13.066Z,7.10